»·PEaware :: N1507M 8S3-98TE

N1507M :: 8S3-98TE

FLIGHT INFORMATION

Flight Status: Arrived
Operator: Privately registered:
United States
More flights under this callsign
Pilot: Matthew M. (8235)
Aircraft: DEHAVILLAND DH-2 BEAVER
(DHC2)
More flights by this aircraft type
Origin: 8S3 Santiam Junction State
United States
Destination: 98TE Hilltop
United States
More flights between these airports :: More routes between these airports
Route:
File this flight plan on PilotEdge
Remarks:
Altitude:
(Current/Filed)
8,500ft
Speed:
(Current/Filed)
110kts
Departed: 09-Jun-21 01:15 PM
Arrived: 09-Jun-21 02:15 PM
Distance/Time
Traveled:
85nm/1:00
Distance/Time
To Go:
Arrived

Flight Plot

Page will automatically refresh every two minutes.

Flight plan parsing failed; only flown route is shown


Map Options




Map Legend


Flown Route
Filed Route
Departure Airport
Arrival Airport
Navaid (VOR, NDB)
Fix

Horizontal Profiles

Position Reports

Time Latitude Longitude Heading Altitude Ground
Speed
09-Jun-21 13:14 44.434756 -121.939831 263 3761ft 25kts
09-Jun-21 13:15 44.424872 -121.962189 222 4409ft 98kts
09-Jun-21 13:16 44.402465 -121.987944 220 4940ft 106kts
09-Jun-21 13:17 44.378969 -122.014424 221 5311ft 117kts
09-Jun-21 13:18 44.353206 -122.043699 220 5518ft 119kts
09-Jun-21 13:19 44.327139 -122.073038 220 5721ft 119kts
09-Jun-21 13:20 44.300909 -122.102490 220 5922ft 119kts
09-Jun-21 13:21 44.274250 -122.132383 220 6127ft 120kts
09-Jun-21 13:22 44.247373 -122.162480 220 6338ft 122kts
09-Jun-21 13:23 44.220664 -122.192399 220 6480ft 124kts
09-Jun-21 13:24 44.192462 -122.224003 220 6489ft 125kts
09-Jun-21 13:24 44.168387 -122.250885 220 6497ft 124kts
09-Jun-21 13:26 44.135963 -122.287031 220 6504ft 124kts
09-Jun-21 13:27 44.108204 -122.317934 220 6513ft 124kts
09-Jun-21 13:28 44.079939 -122.349335 217 6522ft 128kts
09-Jun-21 13:28 44.054798 -122.377283 220 6515ft 127kts
09-Jun-21 13:29 44.025505 -122.409787 220 6518ft 126kts
09-Jun-21 13:31 43.992435 -122.446417 220 6518ft 126kts
09-Jun-21 13:31 43.969364 -122.471960 220 6518ft 125kts
09-Jun-21 13:32 43.940062 -122.504356 220 6518ft 125kts
09-Jun-21 13:33 43.911119 -122.536298 220 6518ft 125kts
09-Jun-21 13:34 43.882913 -122.567383 220 6517ft 125kts
09-Jun-21 13:35 43.855675 -122.597362 220 6517ft 125kts
09-Jun-21 13:36 43.828479 -122.627267 220 6515ft 125kts
09-Jun-21 13:37 43.801203 -122.657222 220 6518ft 125kts
09-Jun-21 13:38 43.773446 -122.687671 220 6518ft 125kts
09-Jun-21 13:39 43.746142 -122.717584 220 6518ft 125kts
09-Jun-21 13:40 43.718924 -122.747366 220 6518ft 125kts
09-Jun-21 13:41 43.691646 -122.777178 220 6518ft 125kts
09-Jun-21 13:42 43.664326 -122.807002 220 6517ft 125kts
09-Jun-21 13:43 43.637036 -122.836757 220 6516ft 125kts
09-Jun-21 13:44 43.609642 -122.866588 220 6514ft 125kts
09-Jun-21 13:45 43.582268 -122.896364 220 6512ft 125kts
09-Jun-21 13:46 43.554924 -122.926070 220 6511ft 125kts
09-Jun-21 13:47 43.527465 -122.955865 220 6509ft 124kts
09-Jun-21 13:48 43.495725 -122.976593 205 6397ft 129kts
09-Jun-21 13:49 43.462528 -122.995886 205 6196ft 129kts
09-Jun-21 13:50 43.429250 -123.015228 205 5995ft 129kts
09-Jun-21 13:51 43.396112 -123.034494 205 5795ft 129kts
09-Jun-21 13:52 43.362736 -123.054336 210 4899ft 118kts
09-Jun-21 13:53 43.334169 -123.082600 220 3721ft 136kts
09-Jun-21 13:54 43.313017 -123.114455 254 2534ft 107kts
09-Jun-21 13:55 43.309491 -123.150099 286 1914ft 82kts
09-Jun-21 13:56 43.319510 -123.173075 314 1346ft 65kts
09-Jun-21 13:57 43.323031 -123.178134 167 1284ft 0kts
09-Jun-21 14:07 43.322620 -123.177584 0 1251ft 0kts
09-Jun-21 14:08 43.322620 -123.177584 0 1251ft 0kts
09-Jun-21 14:09 43.322605 -123.177585 0 1250ft 0kts
09-Jun-21 14:10 43.322605 -123.177585 0 1250ft 0kts
09-Jun-21 14:11 43.322605 -123.177585 0 1250ft 0kts
09-Jun-21 14:12 43.322605 -123.177585 0 1250ft 0kts
09-Jun-21 14:13 43.322605 -123.177585 0 1250ft 0kts
09-Jun-21 14:14 43.322605 -123.177585 0 1250ft 0kts
09-Jun-21 14:15 43.322605 -123.177585 0 1250ft 0kts
09-Jun-21 14:16 43.322605 -123.177585 0 1250ft 0kts
09-Jun-21 14:17 43.322605 -123.177585 0 1250ft 0kts
09-Jun-21 14:18 43.322605 -123.177585 0 1250ft 0kts
09-Jun-21 14:19 43.322605 -123.177585 0 1250ft 0kts
09-Jun-21 14:20 43.322605 -123.177585 0 1250ft 0kts
09-Jun-21 14:21 43.322605 -123.177585 0 1250ft 0kts

Navigation Log

Ident Type
Flight plan parsing failed, navigation log unavailable